createdAt,value
2023-05-09T00:00:25.686Z,61.58
2023-05-09T00:02:52.382Z,61.56
2023-05-09T00:05:19.585Z,61.92
2023-05-09T00:07:46.232Z,60.74
2023-05-09T00:10:12.908Z,60.43
2023-05-09T00:12:39.887Z,60.80
2023-05-09T00:15:08.516Z,59.52
2023-05-09T00:17:36.677Z,60.31
2023-05-09T00:20:05.370Z,60.86
2023-05-09T00:22:32.131Z,62.11
2023-05-09T00:24:58.802Z,60.83
2023-05-09T00:27:25.606Z,59.83
2023-05-09T00:29:52.278Z,62.22
2023-05-09T00:32:19.061Z,62.40
2023-05-09T00:34:46.011Z,62.38
2023-05-09T00:37:12.747Z,60.56
2023-05-09T00:39:39.493Z,63.36
2023-05-09T00:42:06.223Z,61.09
2023-05-09T00:44:32.905Z,61.40
2023-05-09T00:46:59.601Z,63.74
2023-05-09T00:49:26.356Z,61.54
2023-05-09T00:51:54.001Z,62.36
2023-05-09T00:54:20.696Z,61.48
2023-05-09T00:56:47.411Z,63.48
2023-05-09T00:59:15.259Z,62.81
2023-05-09T01:01:43.147Z,62.78
2023-05-09T01:04:11.121Z,63.01
2023-05-09T01:06:43.567Z,61.07
2023-05-09T01:09:29.301Z,61.46
2023-05-09T01:12:20.448Z,60.92
2023-05-09T01:15:05.775Z,60.67
2023-05-09T01:17:43.463Z,60.44
2023-05-09T01:20:30.664Z,63.39
2023-05-09T01:23:20.450Z,62.41
2023-05-09T01:25:55.964Z,63.15
2023-05-09T01:28:31.970Z,62.22
2023-05-09T01:30:59.153Z,63.77
2023-05-09T01:33:27.148Z,63.59
2023-05-09T01:35:58.153Z,64.81
2023-05-09T01:38:26.085Z,62.72
2023-05-09T01:40:54.513Z,65.33
2023-05-09T01:43:23.067Z,64.62
2023-05-09T01:45:51.585Z,62.55
2023-05-09T01:48:18.350Z,65.27
2023-05-09T01:50:46.066Z,64.40
2023-05-09T01:53:14.114Z,61.91
2023-05-09T01:55:41.867Z,60.64
2023-05-09T01:58:09.379Z,60.64
2023-05-09T02:00:36.806Z,60.58
2023-05-09T02:03:04.305Z,60.40
2023-05-09T02:05:32.233Z,59.05
2023-05-09T02:07:59.836Z,59.74
2023-05-09T02:10:27.408Z,58.89
2023-05-09T02:12:54.566Z,59.34
2023-05-09T02:15:21.821Z,58.11
2023-05-09T02:17:48.577Z,58.35
2023-05-09T02:20:15.278Z,59.44
2023-05-09T02:22:43.736Z,59.86
2023-05-09T02:25:12.254Z,59.24
2023-05-09T02:27:40.250Z,59.87
2023-05-09T02:30:09.096Z,59.60
2023-05-09T02:32:37.370Z,59.14
2023-05-09T02:35:04.897Z,58.62
2023-05-09T02:37:31.993Z,57.73
2023-05-09T02:39:58.695Z,58.06
2023-05-09T02:42:26.888Z,59.31
2023-05-09T02:44:53.960Z,59.27
2023-05-09T02:47:21.272Z,59.65
2023-05-09T02:49:48.168Z,60.30
2023-05-09T02:52:14.850Z,60.58
2023-05-09T02:54:41.565Z,61.23
2023-05-09T02:57:08.245Z,60.22
2023-05-09T02:59:34.973Z,60.78
2023-05-09T03:02:01.918Z,60.92
2023-05-09T03:04:28.656Z,61.91
2023-05-09T03:06:55.432Z,61.39
2023-05-09T03:09:22.166Z,60.05
2023-05-09T03:11:48.850Z,59.14
2023-05-09T03:14:15.668Z,59.39
2023-05-09T03:16:42.399Z,59.16
2023-05-09T03:19:09.162Z,60.45
2023-05-09T03:21:35.874Z,60.60
2023-05-09T03:24:04.108Z,60.27
2023-05-09T03:26:31.082Z,59.97
2023-05-09T03:28:59.153Z,59.34
2023-05-09T03:31:25.984Z,59.50
2023-05-09T03:33:52.882Z,60.11
2023-05-09T03:36:19.733Z,63.38
2023-05-09T03:38:46.507Z,60.02
2023-05-09T03:41:13.854Z,60.38
2023-05-09T03:43:40.580Z,59.01
2023-05-09T03:46:07.281Z,58.46
2023-05-09T03:48:33.968Z,62.64
2023-05-09T03:51:00.912Z,61.49
2023-05-09T03:53:27.695Z,62.01
2023-05-09T03:55:54.522Z,58.92
2023-05-09T03:58:21.248Z,58.02
2023-05-09T04:00:47.999Z,56.96
2023-05-09T04:03:14.963Z,58.14
2023-05-09T04:05:41.765Z,55.76
2023-05-09T04:08:08.487Z,55.82
2023-05-09T04:10:35.190Z,54.30
2023-05-09T04:13:01.973Z,52.97
2023-05-09T04:15:28.698Z,52.22
2023-05-09T04:17:55.450Z,50.04
2023-05-09T04:20:22.285Z,52.48
2023-05-09T04:22:48.980Z,53.80
2023-05-09T04:25:16.238Z,52.96
2023-05-09T04:27:43.095Z,51.51
2023-05-09T04:30:10.610Z,51.92
2023-05-09T04:32:37.449Z,52.34
2023-05-09T04:35:04.575Z,51.26
2023-05-09T04:37:32.904Z,49.98
2023-05-09T04:39:59.606Z,52.39
2023-05-09T04:42:26.494Z,51.14
2023-05-09T04:44:53.567Z,52.99
2023-05-09T04:47:20.310Z,54.94
2023-05-09T04:49:47.041Z,56.20
2023-05-09T04:52:13.784Z,57.18
2023-05-09T04:54:40.490Z,55.95
2023-05-09T04:57:17.109Z,52.99
2023-05-09T04:59:45.016Z,55.19
2023-05-09T05:02:11.693Z,55.66
2023-05-09T05:04:38.472Z,53.82
2023-05-09T05:07:05.554Z,53.91
2023-05-09T05:09:32.332Z,54.08
2023-05-09T05:12:02.367Z,52.49
2023-05-09T05:14:29.337Z,54.69
2023-05-09T05:16:56.086Z,54.28
2023-05-09T05:19:22.971Z,52.83
2023-05-09T05:21:49.618Z,53.23
2023-05-09T05:24:16.374Z,54.55
2023-05-09T05:26:43.102Z,53.47
2023-05-09T05:29:10.121Z,52.88
2023-05-09T05:31:36.920Z,52.65
2023-05-09T05:34:03.778Z,52.53
2023-05-09T05:36:30.489Z,55.39
2023-05-09T05:38:57.426Z,52.37
2023-05-09T05:41:24.280Z,54.29
2023-05-09T05:43:53.423Z,52.93
2023-05-09T05:46:20.880Z,52.97
2023-05-09T05:48:47.656Z,55.18
2023-05-09T05:51:14.363Z,53.78
2023-05-09T05:53:41.177Z,54.67
2023-05-09T05:56:08.012Z,53.65
2023-05-09T05:58:34.707Z,53.86
2023-05-09T06:01:02.056Z,52.68
2023-05-09T06:03:28.887Z,55.02
2023-05-09T06:05:56.727Z,53.50
2023-05-09T06:08:23.490Z,53.48
2023-05-09T06:10:50.226Z,55.18
2023-05-09T06:13:17.065Z,55.86
2023-05-09T06:15:44.210Z,55.06
2023-05-09T06:18:11.127Z,55.83
2023-05-09T06:20:37.916Z,55.43
2023-05-09T06:23:04.644Z,53.13
2023-05-09T06:25:31.346Z,54.36
2023-05-09T06:27:58.062Z,55.70
2023-05-09T06:30:26.667Z,54.46
2023-05-09T06:32:54.335Z,55.01
2023-05-09T06:35:21.077Z,54.49
2023-05-09T06:37:48.794Z,53.62
2023-05-09T06:40:17.253Z,51.99
2023-05-09T06:42:46.120Z,53.32
2023-05-09T06:45:13.419Z,52.08
2023-05-09T06:47:40.647Z,52.64
2023-05-09T06:50:07.913Z,51.76
2023-05-09T06:52:34.630Z,50.01
2023-05-09T06:55:01.312Z,52.66
2023-05-09T06:57:28.167Z,49.73
2023-05-09T06:59:54.893Z,51.75
2023-05-09T07:02:21.655Z,50.65
2023-05-09T07:04:48.508Z,49.48
2023-05-09T07:07:15.252Z,48.09
2023-05-09T07:09:42.141Z,47.36
2023-05-09T07:12:08.866Z,49.90
2023-05-09T07:14:35.995Z,49.36
2023-05-09T07:17:18.178Z,48.34
2023-05-09T07:19:48.383Z,48.79
2023-05-09T07:22:15.186Z,47.24
2023-05-09T07:24:41.934Z,49.98
2023-05-09T07:27:08.784Z,48.03
2023-05-09T07:29:35.517Z,47.02
2023-05-09T07:32:02.294Z,46.57
2023-05-09T07:34:29.085Z,44.79
2023-05-09T07:36:55.972Z,46.75
2023-05-09T07:39:22.698Z,44.81
2023-05-09T07:41:49.413Z,45.52
2023-05-09T07:44:16.503Z,44.25
2023-05-09T07:46:43.220Z,46.93
2023-05-09T07:49:10.546Z,43.71
2023-05-09T07:51:37.277Z,41.81
2023-05-09T07:54:04.033Z,41.37
2023-05-09T07:56:30.766Z,40.91
2023-05-09T07:58:57.450Z,44.83
2023-05-09T08:01:24.302Z,42.91
2023-05-09T08:03:51.171Z,40.31
2023-05-09T08:06:18.218Z,40.64
2023-05-09T08:08:44.966Z,42.25
2023-05-09T08:11:11.692Z,42.45
2023-05-09T08:13:38.461Z,41.27
2023-05-09T08:16:05.306Z,42.08
2023-05-09T08:18:32.065Z,42.70
2023-05-09T08:20:59.987Z,40.92
2023-05-09T08:23:27.124Z,41.88
2023-05-09T08:25:54.758Z,40.97
2023-05-09T08:28:24.480Z,42.74
2023-05-09T08:30:53.553Z,42.63
2023-05-09T08:33:20.427Z,43.81
2023-05-09T08:35:51.043Z,41.27
2023-05-09T08:38:17.807Z,40.18
2023-05-09T08:40:44.626Z,40.02
2023-05-09T08:43:12.072Z,41.65
2023-05-09T08:45:51.833Z,41.92
2023-05-09T08:48:19.431Z,40.36
2023-05-09T08:50:46.189Z,41.08
2023-05-09T08:53:13.811Z,43.58
2023-05-09T08:55:40.866Z,43.29
2023-05-09T08:58:08.486Z,43.27
2023-05-09T09:00:36.977Z,43.52
2023-05-09T09:03:06.556Z,42.57
2023-05-09T09:05:41.853Z,46.31
2023-05-09T09:08:09.662Z,42.34
2023-05-09T09:10:39.599Z,39.90
2023-05-09T09:13:06.522Z,38.73
2023-05-09T09:15:37.830Z,41.33
2023-05-09T09:18:08.108Z,40.56
2023-05-09T09:20:35.899Z,41.81
2023-05-09T09:23:04.940Z,40.49
2023-05-09T09:25:31.743Z,40.27
2023-05-09T09:27:58.452Z,40.66
2023-05-09T09:30:25.687Z,41.78
2023-05-09T09:32:52.527Z,42.53
2023-05-09T09:35:20.507Z,39.75
2023-05-09T09:37:47.339Z,41.78
2023-05-09T09:40:14.885Z,40.75
2023-05-09T09:42:46.068Z,42.27
2023-05-09T09:45:13.999Z,42.70
2023-05-09T09:47:41.340Z,41.90
2023-05-09T09:50:12.768Z,40.87
2023-05-09T09:52:44.213Z,43.20
2023-05-09T09:55:11.736Z,41.38
2023-05-09T09:57:40.065Z,40.99
2023-05-09T10:00:07.719Z,40.69
2023-05-09T10:02:34.473Z,40.31
2023-05-09T10:05:10.261Z,39.99
2023-05-09T10:07:37.016Z,39.48
2023-05-09T10:10:06.330Z,41.45
2023-05-09T10:12:34.802Z,41.12
2023-05-09T10:15:02.691Z,42.34
2023-05-09T10:17:32.121Z,41.79
2023-05-09T10:20:00.795Z,43.31
2023-05-09T10:22:28.433Z,41.47
2023-05-09T10:25:01.826Z,42.18
2023-05-09T10:27:30.940Z,41.88
2023-05-09T10:30:07.435Z,42.74
2023-05-09T10:32:36.953Z,42.32
2023-05-09T10:35:05.510Z,42.62
2023-05-09T10:37:33.552Z,41.85
2023-05-09T10:40:03.019Z,45.91
2023-05-09T10:42:30.638Z,42.52
2023-05-09T10:44:58.101Z,40.15
2023-05-09T10:47:28.316Z,39.97
2023-05-09T10:49:55.358Z,41.46
2023-05-09T10:52:22.926Z,41.67
2023-05-09T10:55:00.787Z,42.07
2023-05-09T10:57:28.893Z,40.56
2023-05-09T10:59:56.763Z,40.66
2023-05-09T11:02:31.403Z,40.41
2023-05-09T11:05:14.734Z,41.23
2023-05-09T11:07:41.693Z,41.10
2023-05-09T11:10:09.375Z,42.08
2023-05-09T11:12:53.629Z,44.15
2023-05-09T11:15:21.316Z,41.13
2023-05-09T11:17:51.236Z,43.59
2023-05-09T11:20:18.137Z,41.96
2023-05-09T11:22:47.316Z,43.58
2023-05-09T11:25:15.304Z,43.29
2023-05-09T11:27:45.000Z,43.29
2023-05-09T11:30:14.854Z,44.22
2023-05-09T11:32:46.009Z,44.06
2023-05-09T11:35:17.873Z,44.09
2023-05-09T11:37:53.075Z,43.32
2023-05-09T11:40:21.173Z,44.15
2023-05-09T11:42:50.129Z,44.14
2023-05-09T11:45:17.439Z,43.93
2023-05-09T11:47:45.525Z,44.23
2023-05-09T11:50:13.645Z,44.49
2023-05-09T11:52:41.589Z,43.35
2023-05-09T11:55:13.133Z,43.34
2023-05-09T11:57:41.235Z,44.11
2023-05-09T12:00:09.518Z,44.49
2023-05-09T12:02:40.273Z,43.81
2023-05-09T12:05:09.438Z,43.52
2023-05-09T12:07:37.739Z,44.44
2023-05-09T12:10:08.946Z,43.36
2023-05-09T12:12:36.553Z,43.76
2023-05-09T12:15:04.931Z,44.04
2023-05-09T12:17:32.065Z,43.34
2023-05-09T12:20:00.203Z,44.49
2023-05-09T12:22:27.817Z,44.33
2023-05-09T12:24:54.941Z,42.61
2023-05-09T12:27:22.073Z,44.12
2023-05-09T12:29:49.035Z,40.92
2023-05-09T12:32:16.606Z,40.89
2023-05-09T12:34:48.592Z,41.76
2023-05-09T12:37:17.562Z,42.52
2023-05-09T12:40:05.036Z,41.00
2023-05-09T12:42:35.169Z,40.73
2023-05-09T12:45:02.614Z,41.06
2023-05-09T12:47:30.125Z,41.86
2023-05-09T12:50:04.451Z,41.34
2023-05-09T12:52:35.369Z,40.96
2023-05-09T12:55:06.650Z,40.73
2023-05-09T12:57:33.636Z,42.57
2023-05-09T13:00:01.228Z,42.84
2023-05-09T13:02:28.855Z,40.76
2023-05-09T13:05:25.033Z,40.54
2023-05-09T13:07:52.773Z,40.46
2023-05-09T13:10:23.863Z,42.19
2023-05-09T13:12:51.628Z,41.16
2023-05-09T13:15:22.897Z,40.37
2023-05-09T13:17:50.483Z,40.68
2023-05-09T13:20:18.043Z,40.93
2023-05-09T13:22:45.942Z,40.24
2023-05-09T13:25:13.165Z,39.84
2023-05-09T13:27:39.950Z,39.91
2023-05-09T13:30:09.797Z,42.89
2023-05-09T13:32:39.237Z,41.52
2023-05-09T13:35:08.125Z,40.11
2023-05-09T13:37:35.210Z,39.57
2023-05-09T13:40:02.445Z,40.05
2023-05-09T13:42:29.322Z,38.72
2023-05-09T13:44:56.126Z,38.11
2023-05-09T13:47:22.999Z,39.92
2023-05-09T13:49:49.773Z,38.16
2023-05-09T13:52:16.653Z,39.79
2023-05-09T13:54:43.605Z,36.92
2023-05-09T13:57:10.424Z,37.40
2023-05-09T13:59:37.910Z,36.31
2023-05-09T14:02:04.742Z,37.71
2023-05-09T14:04:34.653Z,38.02
2023-05-09T14:07:01.703Z,35.39
2023-05-09T14:09:29.039Z,35.85
2023-05-09T14:11:57.324Z,36.03
2023-05-09T14:14:25.530Z,34.97
2023-05-09T14:16:52.852Z,35.79
2023-05-09T14:19:19.701Z,34.07
2023-05-09T14:21:49.285Z,35.04
2023-05-09T14:24:16.464Z,35.93
2023-05-09T14:26:43.952Z,34.11
2023-05-09T14:29:10.773Z,33.91
2023-05-09T14:31:37.931Z,35.84
2023-05-09T14:34:05.541Z,35.56
2023-05-09T14:36:32.751Z,36.53
2023-05-09T14:38:59.513Z,36.06
2023-05-09T14:41:26.301Z,34.95
2023-05-09T14:43:53.025Z,39.62
2023-05-09T14:46:19.962Z,37.53
2023-05-09T14:48:46.744Z,37.11
2023-05-09T14:51:13.522Z,35.69
2023-05-09T14:53:41.992Z,36.17
2023-05-09T14:56:09.695Z,37.05
2023-05-09T14:58:36.473Z,38.42
2023-05-09T15:01:03.609Z,33.62
2023-05-09T15:03:30.978Z,34.30
2023-05-09T15:05:59.000Z,35.59
2023-05-09T15:08:26.096Z,35.63
2023-05-09T15:10:53.135Z,34.75
2023-05-09T15:13:20.119Z,35.19
2023-05-09T15:15:47.421Z,33.38
2023-05-09T15:18:16.718Z,35.55
2023-05-09T15:20:43.661Z,34.76
2023-05-09T15:23:11.091Z,34.55
2023-05-09T15:25:37.932Z,36.07
2023-05-09T15:28:04.817Z,37.17
2023-05-09T15:30:31.618Z,38.00
2023-05-09T15:32:59.440Z,36.50
2023-05-09T15:35:27.092Z,36.73
2023-05-09T15:37:53.781Z,35.32
2023-05-09T15:40:20.486Z,36.92
2023-05-09T15:42:48.465Z,36.49
2023-05-09T15:45:15.910Z,37.42
2023-05-09T15:47:42.959Z,37.00
2023-05-09T15:50:10.181Z,37.30
2023-05-09T15:52:37.019Z,36.62
2023-05-09T15:55:03.899Z,35.95
2023-05-09T15:57:30.781Z,38.93
2023-05-09T15:59:57.804Z,36.55
2023-05-09T16:02:24.996Z,37.41
2023-05-09T16:04:51.920Z,36.16
2023-05-09T16:07:20.902Z,35.88
2023-05-09T16:09:47.648Z,35.32
2023-05-09T16:12:14.786Z,35.05
2023-05-09T16:14:41.651Z,35.10
2023-05-09T16:17:08.367Z,36.78
2023-05-09T16:19:36.224Z,35.08
2023-05-09T16:22:03.184Z,34.62
2023-05-09T16:24:31.884Z,34.46
2023-05-09T16:26:58.836Z,35.82
2023-05-09T16:29:27.535Z,35.10
2023-05-09T16:31:54.378Z,35.98
2023-05-09T16:34:21.225Z,37.25
2023-05-09T16:36:48.029Z,35.65
2023-05-09T16:39:15.443Z,36.87
2023-05-09T16:41:42.184Z,37.45
2023-05-09T16:44:08.898Z,36.78
2023-05-09T16:46:35.617Z,37.43
2023-05-09T16:49:02.600Z,37.31
2023-05-09T16:51:29.496Z,37.98
2023-05-09T16:53:56.290Z,39.37
2023-05-09T16:56:23.575Z,38.21
2023-05-09T16:58:50.289Z,38.46
2023-05-09T17:01:17.040Z,38.46
2023-05-09T17:03:43.881Z,36.72
2023-05-09T17:06:10.592Z,38.17
2023-05-09T17:08:37.512Z,39.15
2023-05-09T17:11:05.546Z,37.34
2023-05-09T17:13:32.265Z,37.80
2023-05-09T17:15:59.122Z,37.21
2023-05-09T17:18:36.696Z,36.96
2023-05-09T17:21:04.997Z,37.27
2023-05-09T17:23:32.029Z,38.06
2023-05-09T17:25:58.942Z,38.72
2023-05-09T17:28:25.667Z,38.38
2023-05-09T17:30:52.666Z,38.48
2023-05-09T17:33:19.573Z,39.22
2023-05-09T17:35:49.599Z,38.15
2023-05-09T17:38:16.615Z,37.80
2023-05-09T17:40:43.715Z,37.73
2023-05-09T17:43:10.552Z,39.86
2023-05-09T17:45:37.469Z,38.65
2023-05-09T17:48:04.540Z,38.48
2023-05-09T17:50:31.785Z,38.65
2023-05-09T17:52:58.863Z,38.12
2023-05-09T17:55:25.641Z,38.02
2023-05-09T17:57:52.490Z,37.47
2023-05-09T18:00:19.883Z,39.04
2023-05-09T18:02:48.345Z,38.79
2023-05-09T18:05:15.251Z,39.40
2023-05-09T18:07:42.033Z,38.90
2023-05-09T18:10:09.518Z,38.53
2023-05-09T18:12:37.375Z,39.90
2023-05-09T18:15:05.125Z,39.24
2023-05-09T18:17:31.895Z,38.26
2023-05-09T18:19:58.721Z,38.38
2023-05-09T18:22:25.802Z,39.57
2023-05-09T18:24:52.748Z,39.63
2023-05-09T18:27:19.430Z,40.84
2023-05-09T18:29:47.607Z,41.31
2023-05-09T18:32:14.431Z,41.82
2023-05-09T18:34:41.926Z,41.49
2023-05-09T18:37:09.893Z,41.12
2023-05-09T18:39:36.791Z,40.59
2023-05-09T18:42:03.764Z,39.86
2023-05-09T18:44:30.486Z,42.74
2023-05-09T18:46:58.218Z,42.91
2023-05-09T18:49:30.034Z,42.97
2023-05-09T18:51:56.835Z,40.48
2023-05-09T18:54:23.631Z,39.64
2023-05-09T18:56:50.495Z,41.97
2023-05-09T18:59:17.483Z,40.90
2023-05-09T19:01:44.362Z,41.29
2023-05-09T19:04:11.458Z,42.27
2023-05-09T19:06:38.251Z,43.14
2023-05-09T19:09:05.796Z,43.97
2023-05-09T19:11:32.481Z,42.34
2023-05-09T19:13:59.270Z,43.44
2023-05-09T19:16:26.875Z,45.39
2023-05-09T19:18:57.279Z,44.79
2023-05-09T19:21:24.224Z,43.86
2023-05-09T19:23:51.038Z,44.82
2023-05-09T19:26:18.374Z,45.59
2023-05-09T19:28:46.057Z,47.12
2023-05-09T19:31:12.849Z,45.83
2023-05-09T19:33:39.615Z,46.77
2023-05-09T19:36:06.465Z,47.77
2023-05-09T19:38:33.216Z,48.68
2023-05-09T19:40:59.926Z,46.02
2023-05-09T19:43:26.688Z,46.35
2023-05-09T19:45:53.393Z,47.52
2023-05-09T19:48:20.299Z,47.02
2023-05-09T19:50:47.058Z,46.23
2023-05-09T19:53:13.758Z,48.46
2023-05-09T19:55:40.491Z,48.87
2023-05-09T19:58:07.160Z,51.41
2023-05-09T20:00:36.157Z,53.69
2023-05-09T20:03:04.310Z,53.14
2023-05-09T20:08:14.887Z,52.13
2023-05-09T20:10:41.429Z,51.93
2023-05-09T20:13:08.135Z,52.54
2023-05-09T20:15:34.736Z,52.54
2023-05-09T20:18:03.835Z,52.65
2023-05-09T20:20:32.376Z,52.49
2023-05-09T20:22:59.209Z,53.37
2023-05-09T20:25:25.839Z,51.79
2023-05-09T20:27:52.435Z,51.93
2023-05-09T20:30:19.090Z,49.95
2023-05-09T20:32:45.713Z,52.86
2023-05-09T20:35:12.372Z,54.29
2023-05-09T20:37:39.051Z,52.39
2023-05-09T20:40:09.370Z,52.78
2023-05-09T20:42:36.001Z,54.75
2023-05-09T20:45:02.955Z,53.96
2023-05-09T20:47:29.684Z,56.50
2023-05-09T20:49:58.211Z,55.52
2023-05-09T20:52:25.148Z,57.09
2023-05-09T20:54:51.721Z,54.10
2023-05-09T20:57:18.407Z,54.90
2023-05-09T20:59:45.081Z,54.19
2023-05-09T21:02:11.797Z,55.82
2023-05-09T21:04:38.509Z,53.98
2023-05-09T21:07:05.113Z,51.86
2023-05-09T21:09:31.740Z,52.05
2023-05-09T21:11:58.632Z,55.46
2023-05-09T21:14:25.205Z,55.27
2023-05-09T21:16:55.038Z,54.61
2023-05-09T21:19:21.729Z,53.20
2023-05-09T21:21:48.335Z,52.11
2023-05-09T21:24:14.945Z,52.22
2023-05-09T21:26:41.593Z,54.08
2023-05-09T21:29:08.221Z,55.29
2023-05-09T21:31:35.572Z,54.42
2023-05-09T21:34:02.213Z,54.58
2023-05-09T21:36:28.995Z,55.22
2023-05-09T21:38:55.568Z,54.79
2023-05-09T21:41:22.213Z,55.58
2023-05-09T21:43:48.845Z,58.58
2023-05-09T21:46:15.551Z,57.72
2023-05-09T21:48:42.201Z,57.60
2023-05-09T21:51:09.038Z,57.91
2023-05-09T21:53:35.728Z,56.68
2023-05-09T21:56:02.608Z,54.51
2023-05-09T21:58:29.170Z,54.40
2023-05-09T22:00:55.838Z,54.21
2023-05-09T22:03:22.517Z,55.00
2023-05-09T22:05:49.217Z,67.01
2023-05-09T22:08:18.250Z,66.16
2023-05-09T22:10:44.854Z,67.57
2023-05-09T22:13:11.544Z,65.19
2023-05-09T22:15:38.234Z,63.11
2023-05-09T22:18:04.913Z,61.03
2023-05-09T22:20:31.596Z,60.31
2023-05-09T22:22:58.205Z,59.84
2023-05-09T22:25:24.848Z,58.82
2023-05-09T22:27:51.472Z,59.84
2023-05-09T22:30:18.465Z,67.67
2023-05-09T22:32:45.194Z,63.25
2023-05-09T22:35:12.027Z,62.58
2023-05-09T22:37:38.812Z,63.93
2023-05-09T22:40:05.762Z,64.71
2023-05-09T22:42:34.405Z,63.87
2023-05-09T22:45:01.249Z,64.29
2023-05-09T22:47:28.073Z,63.87
2023-05-09T22:49:54.870Z,61.45
2023-05-09T22:52:21.551Z,59.80
2023-05-09T22:54:48.395Z,61.02
2023-05-09T22:57:17.992Z,61.31
2023-05-09T22:59:44.975Z,61.40
2023-05-09T23:02:11.790Z,60.96
2023-05-09T23:04:38.513Z,57.90
2023-05-09T23:07:05.241Z,58.60
2023-05-09T23:09:31.950Z,58.28
2023-05-09T23:11:59.760Z,57.18
2023-05-09T23:14:26.665Z,57.90
2023-05-09T23:16:53.456Z,57.84
2023-05-09T23:19:20.286Z,58.16
2023-05-09T23:21:47.159Z,61.55
2023-05-09T23:24:13.856Z,60.39
2023-05-09T23:26:40.677Z,58.35
2023-05-09T23:29:07.392Z,58.46
2023-05-09T23:31:34.242Z,57.00
2023-05-09T23:34:01.018Z,58.27
2023-05-09T23:36:28.406Z,58.44
2023-05-09T23:38:55.173Z,57.40
2023-05-09T23:41:22.139Z,58.40
2023-05-09T23:43:48.875Z,59.82
2023-05-09T23:46:16.309Z,64.71
2023-05-09T23:48:43.334Z,63.13
2023-05-09T23:51:10.035Z,62.20
2023-05-09T23:53:36.755Z,62.35
2023-05-09T23:56:03.714Z,61.69
2023-05-09T23:58:30.390Z,60.73
